createdAt,value
2022-10-09T00:01:07.074Z,13.48
2022-10-09T00:03:34.489Z,20.52
2022-10-09T00:06:01.470Z,16.77
2022-10-09T00:08:28.422Z,16.00
2022-10-09T00:10:55.508Z,16.80
2022-10-09T00:13:22.376Z,15.20
2022-10-09T00:15:49.147Z,19.85
2022-10-09T00:18:17.911Z,17.38
2022-10-09T00:20:46.358Z,16.50
2022-10-09T00:23:18.371Z,16.25
2022-10-09T00:25:59.199Z,14.30
2022-10-09T00:28:28.026Z,14.93
2022-10-09T00:30:55.320Z,14.85
2022-10-09T00:33:22.360Z,16.35
2022-10-09T00:35:49.621Z,16.13
2022-10-09T00:38:16.527Z,15.88
2022-10-09T00:40:43.257Z,18.42
2022-10-09T00:43:38.911Z,16.13
2022-10-09T00:46:05.923Z,14.00
2022-10-09T00:48:33.683Z,13.57
2022-10-09T00:51:01.763Z,14.82
2022-10-09T00:53:30.708Z,14.68
2022-10-09T00:55:58.139Z,13.13
2022-10-09T00:58:25.786Z,15.75
2022-10-09T01:00:53.218Z,13.88
2022-10-09T01:03:19.894Z,12.95
2022-10-09T01:05:58.328Z,12.40
2022-10-09T01:08:38.678Z,12.75
2022-10-09T01:11:31.542Z,15.57
2022-10-09T01:14:05.554Z,15.98
2022-10-09T01:16:38.832Z,13.15
2022-10-09T01:19:12.477Z,16.27
2022-10-09T01:21:47.156Z,14.60
2022-10-09T01:24:25.973Z,16.98
2022-10-09T01:27:06.050Z,13.20
2022-10-09T01:29:46.611Z,17.55
2022-10-09T01:32:18.221Z,13.65
2022-10-09T01:34:46.203Z,16.37
2022-10-09T01:37:14.791Z,13.07
2022-10-09T01:39:45.496Z,14.00
2022-10-09T01:42:13.867Z,15.40
2022-10-09T01:44:41.285Z,12.90
2022-10-09T01:47:19.720Z,12.63
2022-10-09T01:50:18.659Z,13.95
2022-10-09T01:52:51.296Z,14.95
2022-10-09T01:55:36.229Z,12.20
2022-10-09T01:58:14.126Z,13.98
2022-10-09T02:00:45.651Z,13.35
2022-10-09T02:03:15.218Z,13.90
2022-10-09T02:05:44.549Z,18.10
2022-10-09T02:08:14.976Z,16.60
2022-10-09T02:10:43.696Z,15.35
2022-10-09T02:16:03.990Z,20.10
2022-10-09T02:18:40.826Z,14.18
2022-10-09T02:21:13.681Z,15.93
2022-10-09T02:23:44.027Z,13.48
2022-10-09T02:26:12.542Z,14.80
2022-10-09T02:28:43.911Z,19.10
2022-10-09T02:31:27.422Z,19.55
2022-10-09T02:33:59.004Z,15.00
2022-10-09T02:36:26.861Z,15.52
2022-10-09T02:38:55.584Z,19.65
2022-10-09T02:41:23.356Z,12.07
2022-10-09T02:43:50.504Z,14.75
2022-10-09T02:46:17.685Z,19.80
2022-10-09T02:48:44.418Z,14.60
2022-10-09T02:51:11.480Z,12.90
2022-10-09T02:53:38.161Z,17.15
2022-10-09T02:56:05.014Z,19.88
2022-10-09T02:58:33.043Z,16.55
2022-10-09T03:00:59.839Z,17.55
2022-10-09T03:03:26.600Z,19.45
2022-10-09T03:06:14.448Z,17.10
2022-10-09T03:08:43.729Z,16.55
2022-10-09T03:11:21.930Z,14.80
2022-10-09T03:13:49.362Z,16.38
2022-10-09T03:16:24.447Z,13.73
2022-10-09T03:18:52.325Z,17.23
2022-10-09T03:21:26.887Z,14.60
2022-10-09T03:23:54.282Z,17.40
2022-10-09T03:26:23.452Z,14.68
2022-10-09T03:28:51.356Z,14.68
2022-10-09T03:31:39.691Z,17.02
2022-10-09T03:34:06.292Z,19.05
2022-10-09T03:36:32.932Z,19.25
2022-10-09T03:38:59.651Z,15.18
2022-10-09T03:41:26.340Z,17.77
2022-10-09T03:43:53.033Z,15.35
2022-10-09T03:46:19.804Z,16.02
2022-10-09T03:48:46.441Z,16.15
2022-10-09T03:51:13.121Z,14.85
2022-10-09T03:53:39.838Z,13.90
2022-10-09T03:56:06.798Z,15.57
2022-10-09T03:58:33.436Z,14.88
2022-10-09T04:01:00.184Z,15.43
2022-10-09T04:03:29.820Z,15.32
2022-10-09T04:05:56.502Z,17.40
2022-10-09T04:08:23.193Z,16.65
2022-10-09T04:10:59.623Z,16.17
2022-10-09T04:13:26.304Z,12.35
2022-10-09T04:15:53.966Z,12.10
2022-10-09T04:18:21.061Z,21.17
2022-10-09T04:20:52.185Z,19.55
2022-10-09T04:23:21.104Z,17.40
2022-10-09T04:25:47.950Z,15.25
2022-10-09T04:28:14.681Z,14.25
2022-10-09T04:30:41.582Z,15.13
2022-10-09T04:33:12.784Z,18.30
2022-10-09T04:35:49.731Z,12.80
2022-10-09T04:38:16.429Z,13.82
2022-10-09T04:40:43.127Z,14.23
2022-10-09T04:43:09.991Z,15.25
2022-10-09T04:45:40.584Z,18.42
2022-10-09T04:48:07.196Z,18.48
2022-10-09T04:50:33.856Z,20.25
2022-10-09T04:53:00.574Z,19.58
2022-10-09T04:55:27.233Z,16.85
2022-10-09T04:57:53.873Z,17.75
2022-10-09T05:00:20.551Z,15.10
2022-10-09T05:02:47.563Z,17.80
2022-10-09T05:05:14.528Z,18.90
2022-10-09T05:07:41.195Z,19.33
2022-10-09T05:10:08.325Z,23.00
2022-10-09T05:12:34.943Z,25.77
2022-10-09T05:15:01.578Z,19.20
2022-10-09T05:17:28.286Z,15.82
2022-10-09T05:19:55.051Z,17.65
2022-10-09T05:22:21.768Z,19.80
2022-10-09T05:24:48.453Z,19.42
2022-10-09T05:27:15.130Z,21.15
2022-10-09T05:29:41.792Z,19.42
2022-10-09T05:32:08.522Z,21.85
2022-10-09T05:34:35.619Z,18.65
2022-10-09T05:37:02.362Z,24.35
2022-10-09T05:39:29.162Z,18.63
2022-10-09T05:41:55.920Z,18.40
2022-10-09T05:44:22.659Z,18.58
2022-10-09T05:46:52.331Z,21.15
2022-10-09T05:49:19.014Z,22.63
2022-10-09T05:51:47.313Z,20.98
2022-10-09T05:54:16.218Z,18.33
2022-10-09T05:56:45.473Z,18.92
2022-10-09T05:59:14.994Z,22.80
2022-10-09T06:01:44.276Z,20.17
2022-10-09T06:04:17.651Z,23.50
2022-10-09T06:06:47.506Z,29.52
2022-10-09T06:09:16.121Z,21.58
2022-10-09T06:11:43.032Z,27.67
2022-10-09T06:14:12.685Z,26.92
2022-10-09T06:16:41.839Z,26.33
2022-10-09T06:19:11.766Z,24.13
2022-10-09T06:21:38.487Z,26.17
2022-10-09T06:24:06.979Z,22.35
2022-10-09T06:26:34.166Z,27.25
2022-10-09T06:29:02.568Z,20.95
2022-10-09T06:31:32.033Z,20.77
2022-10-09T06:34:00.773Z,23.42
2022-10-09T06:36:29.939Z,19.77
2022-10-09T06:38:58.700Z,21.02
2022-10-09T06:41:26.963Z,18.38
2022-10-09T06:44:02.125Z,20.00
2022-10-09T06:46:32.302Z,19.88
2022-10-09T06:49:00.017Z,17.90
2022-10-09T06:51:30.709Z,16.85
2022-10-09T06:53:59.789Z,15.98
2022-10-09T06:56:28.951Z,13.05
2022-10-09T06:58:56.309Z,15.82
2022-10-09T07:01:26.904Z,20.83
2022-10-09T07:04:02.557Z,12.50
2022-10-09T10:23:40.987Z,8.13
2022-10-09T10:26:14.401Z,4.45
2022-10-09T10:28:48.628Z,7.18
2022-10-09T10:31:23.090Z,6.45
2022-10-09T10:34:00.607Z,6.38
2022-10-09T10:36:36.504Z,5.47
2022-10-09T10:39:25.019Z,4.85
2022-10-09T10:42:02.074Z,4.60
2022-10-09T10:45:04.209Z,4.28
2022-10-09T10:47:50.154Z,2.75
2022-10-09T10:50:30.632Z,4.03
2022-10-09T10:53:29.963Z,5.75
2022-10-09T10:59:09.407Z,3.35
2022-10-09T11:02:22.985Z,4.20
2022-10-09T11:08:00.031Z,5.80
2022-10-09T11:11:06.639Z,5.07
2022-10-09T11:14:14.513Z,3.22
2022-10-09T11:17:11.633Z,3.63
2022-10-09T11:23:04.183Z,3.08
2022-10-09T11:25:51.093Z,4.07
2022-10-09T11:28:22.556Z,5.22
2022-10-09T11:48:01.300Z,2.93
2022-10-09T11:50:36.326Z,4.03
2022-10-09T11:56:22.890Z,3.70
2022-10-09T11:58:57.814Z,4.18
2022-10-09T12:39:12.285Z,6.82
2022-10-09T12:41:39.562Z,4.22
2022-10-09T12:44:08.236Z,2.75
2022-10-09T12:46:36.854Z,3.35
2022-10-09T12:49:05.177Z,5.85
2022-10-09T12:51:49.396Z,2.70
2022-10-09T12:54:35.751Z,3.97
2022-10-09T12:57:24.111Z,5.15
2022-10-09T13:00:09.215Z,6.68
2022-10-09T13:02:48.279Z,2.75
2022-10-09T13:05:23.686Z,7.60
2022-10-09T13:08:09.903Z,3.75
2022-10-09T13:11:15.704Z,5.00
2022-10-09T13:14:04.273Z,5.32
2022-10-09T13:16:46.123Z,4.63
2022-10-09T13:19:37.020Z,4.60
2022-10-09T13:26:03.152Z,11.05
2022-10-09T13:42:59.474Z,5.83
2022-10-09T13:45:36.552Z,2.08
2022-10-09T13:48:12.923Z,3.25
2022-10-09T13:50:53.879Z,4.25
2022-10-09T13:53:34.669Z,3.85
2022-10-09T13:56:09.534Z,3.92
2022-10-09T13:58:56.027Z,5.20
2022-10-09T14:01:42.372Z,5.40
2022-10-09T14:07:24.918Z,4.90
2022-10-09T14:10:02.135Z,3.40
2022-10-09T14:15:29.382Z,1.90
2022-10-09T14:18:10.277Z,3.95
2022-10-09T14:20:45.517Z,3.65
2022-10-09T14:23:32.028Z,4.75
2022-10-09T14:26:16.628Z,5.53
2022-10-09T14:28:59.092Z,3.00
2022-10-09T14:31:36.521Z,2.70
2022-10-09T14:34:17.168Z,3.58
2022-10-09T14:36:53.210Z,6.95
2022-10-09T14:39:41.765Z,5.18
2022-10-09T14:42:14.845Z,4.13
2022-10-09T14:44:54.152Z,2.47
2022-10-09T14:47:22.252Z,4.40
2022-10-09T14:50:09.675Z,5.97
2022-10-09T14:52:46.991Z,4.00
2022-10-09T14:55:31.809Z,3.15
2022-10-09T14:58:13.412Z,3.47
2022-10-09T15:00:52.015Z,3.30
2022-10-09T15:03:32.532Z,3.08
2022-10-09T15:06:00.619Z,4.45
2022-10-09T15:08:29.743Z,4.05
2022-10-09T15:10:56.845Z,4.35
2022-10-09T15:13:24.053Z,5.07
2022-10-09T15:15:52.570Z,2.85
2022-10-09T15:18:20.291Z,7.10
2022-10-09T15:20:48.136Z,5.07
2022-10-09T15:23:15.621Z,6.30
2022-10-09T15:25:49.762Z,8.68
2022-10-09T15:28:20.811Z,2.60
2022-10-09T15:30:49.183Z,4.78
2022-10-09T15:33:16.755Z,4.50
2022-10-09T15:35:44.410Z,6.70
2022-10-09T15:38:19.041Z,2.53
2022-10-09T15:40:48.840Z,3.70
2022-10-09T15:43:17.679Z,3.60
2022-10-09T15:45:45.243Z,4.45
2022-10-09T15:48:18.011Z,4.90
2022-10-09T15:56:14.856Z,4.45
2022-10-09T15:59:04.727Z,4.35
2022-10-09T16:01:47.852Z,5.00
2022-10-09T16:04:30.425Z,9.07
2022-10-09T16:07:16.113Z,6.00
2022-10-09T16:10:03.213Z,3.50
2022-10-09T16:15:26.940Z,2.78
2022-10-09T16:18:18.161Z,5.25
2022-10-09T16:23:31.844Z,5.55
2022-10-09T16:26:08.483Z,4.55
2022-10-09T16:28:47.292Z,6.03
2022-10-09T16:31:32.691Z,3.55
2022-10-09T16:34:13.629Z,3.25
2022-10-09T16:36:51.895Z,3.40
2022-10-09T16:39:38.994Z,3.63
2022-10-09T16:42:17.944Z,5.07
2022-10-09T16:44:48.168Z,4.43
2022-10-09T16:47:15.396Z,5.60
2022-10-09T16:49:45.386Z,3.60
2022-10-09T16:52:19.956Z,6.10
2022-10-09T16:54:51.815Z,7.18
2022-10-09T16:57:49.142Z,2.67
2022-10-09T17:00:44.275Z,3.80
2022-10-09T17:03:17.585Z,4.25
2022-10-09T17:05:47.654Z,6.57
2022-10-09T17:08:22.487Z,3.55
2022-10-09T17:11:04.004Z,3.72
2022-10-09T17:13:33.899Z,4.38
2022-10-09T17:16:07.761Z,2.70
2022-10-09T17:18:51.077Z,8.15
2022-10-09T17:21:34.137Z,5.35
2022-10-09T17:24:11.360Z,5.60
2022-10-09T17:26:50.407Z,5.10
2022-10-09T17:29:39.126Z,4.10
2022-10-09T17:32:13.305Z,5.80
2022-10-09T17:37:49.731Z,5.50
2022-10-09T17:40:24.460Z,2.97
2022-10-09T17:42:57.977Z,4.55
2022-10-09T17:45:35.809Z,10.15
2022-10-09T17:48:15.938Z,5.22
2022-10-09T17:53:47.635Z,4.10
2022-10-09T17:56:27.925Z,6.47
2022-10-09T17:59:18.073Z,5.22
2022-10-09T18:01:48.156Z,6.20
2022-10-09T18:04:25.241Z,3.50
2022-10-09T18:07:04.646Z,6.60
2022-10-09T18:09:41.450Z,5.60
2022-10-09T18:12:21.718Z,4.80
2022-10-09T18:15:03.777Z,9.63
2022-10-09T18:17:46.243Z,5.72
2022-10-09T18:20:25.192Z,6.75
2022-10-09T18:22:52.376Z,6.72
2022-10-09T18:25:19.585Z,5.57
2022-10-09T18:28:01.278Z,9.05
2022-10-09T18:30:58.782Z,7.40
2022-10-09T18:33:38.361Z,4.53
2022-10-09T18:36:27.136Z,4.10
2022-10-09T18:39:27.124Z,7.38
2022-10-09T18:42:02.581Z,4.07
2022-10-09T18:45:00.266Z,5.63
2022-10-09T18:47:38.404Z,5.85
2022-10-09T18:50:21.362Z,7.03
2022-10-09T18:53:26.635Z,9.20
2022-10-09T18:56:37.306Z,7.25
2022-10-09T19:04:53.130Z,5.45
2022-10-09T19:10:12.318Z,5.80
2022-10-09T19:15:16.509Z,6.80
2022-10-09T19:17:52.488Z,7.53
2022-10-09T19:20:29.254Z,4.93
2022-10-09T19:23:05.466Z,8.60
2022-10-09T19:25:38.935Z,7.47
2022-10-09T19:28:19.001Z,5.70
2022-10-09T19:30:50.363Z,6.55
2022-10-09T19:33:25.511Z,5.78
2022-10-09T19:36:12.478Z,7.00
2022-10-09T19:38:46.066Z,5.50
2022-10-09T19:41:18.261Z,4.43
2022-10-09T19:43:50.946Z,6.72
2022-10-09T19:48:58.647Z,4.93
2022-10-09T19:51:37.814Z,4.30
2022-10-09T19:54:17.644Z,5.97
2022-10-09T19:56:44.984Z,4.05
2022-10-09T19:59:12.183Z,3.05
2022-10-09T20:01:40.460Z,4.68
2022-10-09T20:04:32.746Z,5.15
2022-10-09T20:07:00.471Z,8.47
2022-10-09T20:09:40.570Z,4.85
2022-10-09T20:12:11.930Z,6.38
2022-10-09T20:14:48.364Z,5.25
2022-10-09T20:17:22.516Z,6.40
2022-10-09T20:19:54.913Z,4.93
2022-10-09T20:22:26.559Z,5.80
2022-10-09T20:25:03.403Z,4.13
2022-10-09T20:27:36.812Z,5.85
2022-10-09T20:30:10.762Z,6.97
2022-10-09T20:32:41.788Z,5.40
2022-10-09T20:35:14.998Z,9.63
2022-10-09T20:37:55.971Z,4.03
2022-10-09T20:40:33.088Z,4.75
2022-10-09T20:43:10.194Z,5.45
2022-10-09T20:45:53.252Z,7.00
2022-10-09T20:48:25.986Z,5.63
2022-10-09T20:51:01.001Z,5.97
2022-10-09T20:53:31.549Z,5.45
2022-10-09T20:56:05.466Z,7.70
2022-10-09T20:58:39.840Z,5.03
2022-10-09T21:01:21.466Z,7.22
2022-10-09T21:04:07.287Z,7.03
2022-10-09T21:06:38.059Z,8.40
2022-10-09T21:09:13.918Z,6.75
2022-10-09T21:11:58.189Z,5.78
2022-10-09T21:14:37.890Z,5.68
2022-10-09T21:17:11.049Z,6.90
2022-10-09T21:19:50.677Z,4.28
2022-10-09T21:22:21.816Z,5.47
2022-10-09T21:24:51.432Z,4.07
2022-10-09T21:27:18.642Z,7.25
2022-10-09T21:29:45.759Z,5.22
2022-10-09T21:32:24.655Z,6.47
2022-10-09T21:35:15.288Z,6.43
2022-10-09T21:37:45.610Z,5.82
2022-10-09T21:40:22.546Z,7.30
2022-10-09T21:42:55.400Z,5.70
2022-10-09T21:45:36.608Z,5.57
2022-10-09T21:48:21.497Z,7.50
2022-10-09T21:50:57.015Z,4.80
2022-10-09T21:53:36.620Z,10.23
2022-10-09T21:56:08.565Z,7.47
2022-10-09T21:58:44.372Z,7.70
2022-10-09T22:01:30.096Z,7.88
2022-10-09T22:04:01.992Z,7.43
2022-10-09T22:06:47.122Z,8.55
2022-10-09T22:09:29.888Z,7.80
2022-10-09T22:12:03.808Z,7.15
2022-10-09T22:14:32.360Z,7.57
2022-10-09T22:17:11.201Z,8.52
2022-10-09T22:19:41.531Z,10.88
2022-10-09T22:22:13.281Z,9.93
2022-10-09T22:24:57.074Z,7.00
2022-10-09T22:30:15.298Z,9.35
2022-10-09T22:32:48.353Z,9.40
2022-10-09T22:35:21.999Z,8.77
2022-10-09T22:40:47.198Z,7.65
2022-10-09T22:43:22.492Z,7.95
2022-10-09T22:45:59.468Z,7.75
2022-10-09T22:48:32.130Z,9.10
2022-10-09T22:53:37.774Z,8.63
2022-10-09T22:56:06.150Z,8.32
2022-10-09T22:58:33.536Z,11.85
2022-10-09T23:01:05.451Z,10.32
2022-10-09T23:03:36.098Z,10.10
2022-10-09T23:06:24.562Z,9.85
2022-10-09T23:08:57.688Z,9.32
2022-10-09T23:11:37.209Z,9.45
2022-10-09T23:14:09.259Z,10.50
2022-10-09T23:16:46.045Z,12.95
2022-10-09T23:19:20.752Z,13.55
2022-10-09T23:21:55.812Z,11.27
2022-10-09T23:24:36.473Z,12.73
2022-10-09T23:27:13.877Z,12.88
2022-10-09T23:29:54.292Z,16.92
2022-10-09T23:32:27.785Z,11.30
2022-10-09T23:35:01.018Z,13.02
2022-10-09T23:37:34.512Z,11.68
2022-10-09T23:40:14.392Z,14.43
2022-10-09T23:42:53.305Z,14.10
2022-10-09T23:45:23.305Z,15.73
2022-10-09T23:47:57.830Z,11.70
2022-10-09T23:50:32.961Z,11.60
2022-10-09T23:53:12.194Z,11.73
2022-10-09T23:55:48.868Z,12.35
2022-10-09T23:58:21.037Z,10.27
